Time;durP1;ratioP1;P1;durP2;ratioP2;P2;SDS_P1;SDS_P2;PMS_P1;PMS_P2;Temp;Humidity;BMP_temperature;BMP_pressure;BME280_temperature;BME280_humidity;BME280_pressure;Samples;Min_cycle;Max_cycle;Signal;HPM_P1;HPM_P2
2021/03/24 00:00:46;;;;;;;23.23;11.43;;;;;9.70;102199.00;;;;5083356;28;20199;-79
2021/03/24 00:03:14;;;;;;;20.70;11.38;;;;;9.70;102196.00;;;;5088829;28;20194;-79
2021/03/24 00:05:43;;;;;;;20.70;11.43;;;;;9.70;102203.00;;;;5086651;28;20209;-79
2021/03/24 00:08:10;;;;;;;20.13;11.07;;;;;9.60;102200.00;;;;5088938;28;20207;-79
2021/03/24 00:10:38;;;;;;;21.45;11.60;;;;;9.60;102194.00;;;;5089190;28;20687;-79
2021/03/24 00:13:06;;;;;;;21.05;11.70;;;;;9.60;102188.00;;;;5088985;28;20198;-79
2021/03/24 00:15:34;;;;;;;23.58;12.63;;;;;9.60;102189.00;;;;5083373;28;20198;-79
2021/03/24 00:18:02;;;;;;;20.98;11.63;;;;;9.60;102195.00;;;;5072813;28;20516;-79
2021/03/24 00:20:31;;;;;;;22.00;12.27;;;;;9.50;102202.00;;;;5069012;28;20432;-79
2021/03/24 00:22:59;;;;;;;21.35;11.18;;;;;9.50;102191.00;;;;5087000;28;20206;-79
2021/03/24 00:25:26;;;;;;;24.80;12.70;;;;;9.50;102191.00;;;;5080153;28;20199;-79
2021/03/24 00:27:54;;;;;;;19.88;11.45;;;;;9.50;102188.00;;;;5069282;28;20256;-78
2021/03/24 00:30:23;;;;;;;21.20;11.75;;;;;9.50;102186.00;;;;5068679;28;20195;-79
2021/03/24 00:32:51;;;;;;;23.23;11.85;;;;;9.40;102182.00;;;;5069851;28;20199;-78
2021/03/24 00:35:18;;;;;;;23.15;12.15;;;;;9.40;102182.00;;;;5088277;28;20202;-79
2021/03/24 00:37:46;;;;;;;21.55;11.68;;;;;9.40;102184.00;;;;5088365;28;20578;-79
2021/03/24 00:40:17;;;;;;;20.42;10.73;;;;;9.40;102181.00;;;;5087787;28;20228;-78
2021/03/24 00:42:44;;;;;;;19.00;11.38;;;;;9.40;102186.00;;;;5089291;28;20571;-78
2021/03/24 00:45:12;;;;;;;19.27;11.27;;;;;9.40;102179.00;;;;5086554;28;20206;-79
2021/03/24 00:47:38;;;;;;;25.08;13.02;;;;;9.40;102185.00;;;;5072118;28;20203;-78
2021/03/24 00:50:08;;;;;;;20.65;11.80;;;;;9.30;102174.00;;;;5068648;28;20203;-78
2021/03/24 00:52:35;;;;;;;22.52;11.88;;;;;9.30;102174.00;;;;5074736;28;20202;-78
2021/03/24 00:55:02;;;;;;;25.38;13.38;;;;;9.30;102164.00;;;;5078764;28;20205;-79
2021/03/24 00:57:29;;;;;;;21.58;12.20;;;;;9.30;102172.00;;;;5076627;28;20190;-79
2021/03/24 00:59:56;;;;;;;25.45;13.13;;;;;9.30;102157.00;;;;5087760;28;20222;-79
2021/03/24 01:02:23;;;;;;;25.95;13.98;;;;;9.20;102164.00;;;;5072190;28;20194;-78
2021/03/24 01:04:49;;;;;;;25.25;13.02;;;;;9.20;102154.00;;;;5076515;28;20263;-78
2021/03/24 01:07:17;;;;;;;21.90;12.90;;;;;9.20;102159.00;;;;5088955;28;20194;-78
2021/03/24 01:09:44;;;;;;;22.98;13.02;;;;;9.20;102152.00;;;;5088959;28;20185;-78
2021/03/24 01:12:11;;;;;;;27.63;12.80;;;;;9.20;102149.00;;;;5088527;28;20206;-78
2021/03/24 01:14:38;;;;;;;24.25;12.63;;;;;9.20;102149.00;;;;5087270;28;20213;-78
2021/03/24 01:17:06;;;;;;;23.88;14.05;;;;;9.10;102143.00;;;;5088185;28;20235;-79
2021/03/24 01:19:33;;;;;;;25.98;13.93;;;;;9.10;102152.00;;;;5088088;28;20248;-78
2021/03/24 01:21:59;;;;;;;21.67;12.63;;;;;9.10;102148.00;;;;5087244;28;20694;-78
2021/03/24 01:24:27;;;;;;;25.55;14.10;;;;;9.10;102154.00;;;;5087653;28;20255;-79
2021/03/24 01:26:53;;;;;;;26.63;13.75;;;;;9.10;102147.00;;;;5088024;28;20209;-78
2021/03/24 01:29:20;;;;;;;22.60;13.35;;;;;9.10;102144.00;;;;5087580;28;20198;-78
2021/03/24 01:31:47;;;;;;;24.65;12.38;;;;;9.10;102151.00;;;;5088426;28;20206;-78
2021/03/24 01:34:14;;;;;;;24.42;14.15;;;;;9.00;102141.00;;;;5087517;28;20202;-79
2021/03/24 01:36:40;;;;;;;23.77;13.35;;;;;9.00;102135.00;;;;5087648;28;20672;-78
2021/03/24 01:39:07;;;;;;;21.35;12.57;;;;;9.00;102138.00;;;;5088172;28;20225;-78
2021/03/24 01:41:35;;;;;;;22.40;12.35;;;;;9.00;102132.00;;;;5088752;28;20194;-79
2021/03/24 01:44:02;;;;;;;24.02;11.90;;;;;9.00;102127.00;;;;5087813;28;20194;-78
2021/03/24 01:46:43;;;;;;;22.90;13.50;;;;;8.90;102128.00;;;;5087662;28;20668;-78
2021/03/24 01:49:21;;;;;;;24.80;13.68;;;;;8.90;102130.00;;;;5087992;28;20666;-78
2021/03/24 01:51:52;;;;;;;24.85;13.73;;;;;8.90;102120.00;;;;5086552;28;20201;-79
2021/03/24 01:54:23;;;;;;;25.65;13.15;;;;;8.90;102125.00;;;;5086335;28;20198;-78
2021/03/24 01:56:58;;;;;;;21.73;12.60;;;;;8.80;102119.00;;;;5084125;28;20194;-78
2021/03/24 01:59:25;;;;;;;26.23;12.90;;;;;8.90;102122.00;;;;5092382;28;20213;-79
2021/03/24 02:01:52;;;;;;;24.90;13.25;;;;;8.90;102130.00;;;;5087543;28;20195;-79
2021/03/24 02:04:19;;;;;;;26.25;13.60;;;;;8.80;102117.00;;;;5078847;28;20206;-78
2021/03/24 02:06:53;;;;;;;23.85;14.25;;;;;8.80;102122.00;;;;5090238;28;20190;-78
2021/03/24 02:09:31;;;;;;;30.20;13.52;;;;;8.80;102111.00;;;;5091879;28;20663;-79
2021/03/24 02:12:06;;;;;;;25.02;13.57;;;;;8.80;102119.00;;;;5088004;28;20575;-78
2021/03/24 02:14:38;;;;;;;31.17;13.77;;;;;8.80;102112.00;;;;5079464;28;20190;-79
2021/03/24 02:17:06;;;;;;;25.55;13.07;;;;;8.80;102106.00;;;;5090592;28;20622;-78
2021/03/24 02:19:44;;;;;;;24.25;13.18;;;;;8.70;102103.00;;;;5090385;28;20312;-78
2021/03/24 02:22:13;;;;;;;26.30;13.02;;;;;8.80;102097.00;;;;5078424;28;20202;-79
2021/03/24 02:24:47;;;;;;;26.73;14.75;;;;;8.70;102108.00;;;;5084516;28;20244;-78
2021/03/24 02:27:19;;;;;;;27.17;13.75;;;;;8.70;102099.00;;;;5077237;28;20198;-79
2021/03/24 02:29:51;;;;;;;23.52;13.75;;;;;8.70;102095.00;;;;5090257;28;20187;-79
2021/03/24 02:32:22;;;;;;;27.38;13.73;;;;;8.70;102099.00;;;;5089534;28;20205;-79
2021/03/24 02:34:51;;;;;;;24.40;13.88;;;;;8.70;102102.00;;;;5089858;28;20195;-78
2021/03/24 02:37:19;;;;;;;26.70;13.88;;;;;8.70;102102.00;;;;5090904;28;20217;-78
2021/03/24 02:39:48;;;;;;;24.50;13.25;;;;;8.70;102099.00;;;;5089039;28;20309;-79
2021/03/24 02:42:17;;;;;;;26.05;14.57;;;;;8.70;102097.00;;;;5090050;28;20686;-79
2021/03/24 02:44:45;;;;;;;25.05;14.80;;;;;8.70;102107.00;;;;5089450;28;20224;-78
2021/03/24 02:47:12;;;;;;;26.98;13.27;;;;;8.70;102108.00;;;;5088405;28;20194;-79
2021/03/24 02:49:42;;;;;;;25.48;13.73;;;;;8.70;102089.00;;;;5089625;28;20233;-79
2021/03/24 02:52:11;;;;;;;26.05;13.63;;;;;8.70;102101.00;;;;5090036;28;20441;-79
2021/03/24 02:54:39;;;;;;;28.35;14.63;;;;;8.70;102093.00;;;;5083972;28;20195;-78
2021/03/24 02:57:07;;;;;;;25.13;13.77;;;;;8.70;102092.00;;;;5079978;28;20251;-78
2021/03/24 02:59:34;;;;;;;26.00;13.90;;;;;8.70;102087.00;;;;5089171;28;20699;-78
2021/03/24 03:02:08;;;;;;;27.30;13.82;;;;;8.60;102088.00;;;;5089219;28;20190;-78
2021/03/24 03:04:39;;;;;;;24.83;14.57;;;;;8.70;102081.00;;;;5089442;28;20190;-78
2021/03/24 03:07:09;;;;;;;23.92;14.32;;;;;8.60;102087.00;;;;5089807;28;20578;-78
2021/03/24 03:09:43;;;;;;;25.25;12.98;;;;;8.60;102087.00;;;;5090283;28;20224;-78
2021/03/24 03:12:15;;;;;;;24.08;12.98;;;;;8.70;102088.00;;;;5089504;28;20213;-78
2021/03/24 03:14:49;;;;;;;24.27;14.02;;;;;8.60;102081.00;;;;5089931;28;20186;-78
2021/03/24 03:17:21;;;;;;;26.60;14.68;;;;;8.70;102091.00;;;;5090686;28;20194;-78
2021/03/24 03:19:54;;;;;;;23.45;13.30;;;;;8.70;102098.00;;;;5089462;28;20271;-78
2021/03/24 03:22:24;;;;;;;25.48;14.52;;;;;8.70;102093.00;;;;5089310;28;20191;-78
2021/03/24 03:24:55;;;;;;;26.23;13.70;;;;;8.80;102091.00;;;;5089302;28;20198;-78
2021/03/24 03:27:25;;;;;;;27.35;14.52;;;;;8.80;102087.00;;;;5089719;28;20197;-78
2021/03/24 03:29:57;;;;;;;30.52;14.35;;;;;8.80;102085.00;;;;5089610;28;20259;-78
2021/03/24 03:32:25;;;;;;;34.17;15.88;;;;;8.90;102077.00;;;;5090401;28;20691;-78
2021/03/24 03:34:59;;;;;;;35.15;16.98;;;;;8.90;102077.00;;;;5089497;28;20206;-78
2021/03/24 03:37:28;;;;;;;35.65;17.88;;;;;8.90;102072.00;;;;5089431;28;20635;-78
2021/03/24 03:39:56;;;;;;;30.58;14.60;;;;;8.90;102071.00;;;;5077834;28;20222;-78
2021/03/24 03:42:25;;;;;;;31.23;15.30;;;;;8.90;102071.00;;;;5086508;28;20199;-78
2021/03/24 03:44:55;;;;;;;38.95;17.23;;;;;8.90;102069.00;;;;5089233;28;20213;-79
2021/03/24 03:47:22;;;;;;;27.15;14.50;;;;;9.00;102072.00;;;;5089634;28;20202;-78
2021/03/24 03:49:49;;;;;;;28.95;14.38;;;;;9.00;102062.00;;;;5087369;28;20245;-79
2021/03/24 03:52:34;;;;;;;33.50;14.13;;;;;8.90;102068.00;;;;5088926;28;20190;-78
2021/03/24 03:55:11;;;;;;;31.00;14.05;;;;;8.90;102069.00;;;;5087805;28;20194;-78
2021/03/24 03:57:46;;;;;;;25.10;13.65;;;;;8.90;102065.00;;;;5068975;28;20202;-78
2021/03/24 04:00:20;;;;;;;34.88;12.80;;;;;8.90;102072.00;;;;5078627;28;20228;-78
2021/03/24 04:02:52;;;;;;;22.42;12.57;;;;;8.90;102066.00;;;;5088596;28;20206;-79
2021/03/24 04:05:22;;;;;;;23.25;12.88;;;;;8.90;102073.00;;;;5089520;28;20202;-79
2021/03/24 04:07:55;;;;;;;22.88;12.50;;;;;8.90;102065.00;;;;5088075;28;20244;-79
2021/03/24 04:10:24;;;;;;;23.15;12.57;;;;;8.90;102070.00;;;;5088286;28;20202;-78
2021/03/24 04:12:51;;;;;;;20.73;11.68;;;;;8.90;102069.00;;;;5089164;28;20210;-79
2021/03/24 04:15:20;;;;;;;22.77;12.32;;;;;8.90;102063.00;;;;5088771;28;20201;-78
2021/03/24 04:17:50;;;;;;;20.15;12.15;;;;;8.90;102065.00;;;;5081482;28;20667;-78
2021/03/24 04:20:19;;;;;;;22.67;12.50;;;;;8.90;102062.00;;;;5080758;28;20226;-79
2021/03/24 04:22:48;;;;;;;22.35;12.73;;;;;8.80;102063.00;;;;5088769;28;20547;-78
2021/03/24 04:25:20;;;;;;;24.23;13.05;;;;;8.80;102067.00;;;;5087893;28;20194;-78
2021/03/24 04:27:49;;;;;;;20.15;11.63;;;;;8.80;102070.00;;;;5068355;28;20592;-79
2021/03/24 04:30:22;;;;;;;22.48;12.10;;;;;8.80;102067.00;;;;5076458;28;20205;-78
2021/03/24 04:32:49;;;;;;;19.75;11.73;;;;;8.80;102069.00;;;;5088604;28;20202;-78
2021/03/24 04:35:20;;;;;;;21.55;11.27;;;;;8.70;102064.00;;;;5087416;28;20202;-78
2021/03/24 04:37:51;;;;;;;21.58;12.30;;;;;8.70;102065.00;;;;5087665;28;20236;-79
2021/03/24 04:40:25;;;;;;;19.63;10.48;;;;;8.70;102066.00;;;;5087020;28;20325;-79
2021/03/24 04:42:57;;;;;;;20.17;11.43;;;;;8.70;102057.00;;;;5088231;28;20194;-79
2021/03/24 04:45:33;;;;;;;20.63;11.60;;;;;8.60;102071.00;;;;5087980;28;20190;-79
2021/03/24 04:48:03;;;;;;;20.80;11.93;;;;;8.60;102066.00;;;;5087894;28;20563;-78
2021/03/24 04:50:33;;;;;;;20.65;12.23;;;;;8.60;102075.00;;;;5080880;28;20206;-78
2021/03/24 04:53:05;;;;;;;17.88;10.20;;;;;8.60;102073.00;;;;5084950;28;20199;-79
2021/03/24 04:55:33;;;;;;;19.02;11.70;;;;;8.60;102077.00;;;;5084329;28;20209;-79
2021/03/24 04:58:02;;;;;;;20.08;10.88;;;;;8.60;102080.00;;;;5088008;28;20191;-79
2021/03/24 05:00:37;;;;;;;22.30;11.80;;;;;8.50;102084.00;;;;5087987;28;20226;-78
2021/03/24 05:03:08;;;;;;;20.30;11.80;;;;;8.50;102084.00;;;;5087681;28;20254;-79
2021/03/24 05:05:40;;;;;;;19.27;11.52;;;;;8.50;102079.00;;;;5087919;28;20672;-79
2021/03/24 05:08:14;;;;;;;20.27;11.80;;;;;8.50;102084.00;;;;5087476;28;20663;-79
2021/03/24 05:10:41;;;;;;;22.35;12.90;;;;;8.50;102078.00;;;;5079727;28;20574;-78
2021/03/24 05:13:15;;;;;;;21.30;11.75;;;;;8.50;102084.00;;;;5068751;28;20556;-78
2021/03/24 05:15:45;;;;;;;21.38;11.82;;;;;8.50;102077.00;;;;5077649;28;20198;-78
2021/03/24 05:18:14;;;;;;;23.00;12.40;;;;;8.50;102085.00;;;;5089096;28;20194;-78
2021/03/24 05:20:48;;;;;;;20.02;11.30;;;;;8.40;102082.00;;;;5087334;28;20709;-78
2021/03/24 05:23:18;;;;;;;19.90;11.40;;;;;8.40;102077.00;;;;5088230;28;20283;-78
2021/03/24 05:25:46;;;;;;;19.95;12.00;;;;;8.40;102085.00;;;;5086905;28;20231;-78
2021/03/24 05:28:16;;;;;;;20.52;11.23;;;;;8.40;102078.00;;;;5081942;28;20206;-78
2021/03/24 05:30:52;;;;;;;22.10;12.88;;;;;8.40;102078.00;;;;5087630;28;20579;-78
2021/03/24 05:33:23;;;;;;;20.17;11.45;;;;;8.40;102082.00;;;;5088088;28;20197;-78
2021/03/24 05:36:00;;;;;;;26.27;13.43;;;;;8.40;102083.00;;;;5087583;28;20741;-78
2021/03/24 05:38:32;;;;;;;23.13;12.93;;;;;8.40;102079.00;;;;5075704;28;20772;-78
2021/03/24 05:41:07;;;;;;;22.75;11.88;;;;;8.40;102084.00;;;;5084771;28;20529;-79
2021/03/24 05:43:52;;;;;;;21.20;12.20;;;;;8.30;102081.00;;;;5087470;28;20198;-79
2021/03/24 05:46:38;;;;;;;23.90;12.80;;;;;8.30;102090.00;;;;5082290;28;20197;-79
2021/03/24 05:49:26;;;;;;;24.40;12.50;;;;;8.30;102089.00;;;;5087845;28;20238;-79
2021/03/24 05:52:08;;;;;;;22.42;12.82;;;;;8.30;102087.00;;;;5087511;28;20243;-79
2021/03/24 05:54:54;;;;;;;22.55;12.40;;;;;8.40;102081.00;;;;5086635;28;20194;-79
2021/03/24 05:57:35;;;;;;;20.13;11.82;;;;;8.40;102087.00;;;;5075315;28;20552;-79
2021/03/24 06:00:27;;;;;;;23.02;13.48;;;;;8.30;102094.00;;;;5084182;28;20229;-79
2021/03/24 06:03:12;;;;;;;20.77;10.93;;;;;8.30;102086.00;;;;5087225;28;20567;-79
2021/03/24 06:05:51;;;;;;;20.48;11.98;;;;;8.40;102087.00;;;;5086820;28;20182;-79
2021/03/24 06:09:03;;;;;;;21.55;12.15;;;;;8.30;102084.00;;;;5086946;28;20198;-79
2021/03/24 06:11:54;;;;;;;24.75;12.00;;;;;8.30;102078.00;;;;5087148;28;20213;-78
2021/03/24 06:14:50;;;;;;;23.75;12.35;;;;;8.30;102084.00;;;;5080078;28;20194;-79
2021/03/24 06:18:00;;;;;;;23.27;12.60;;;;;8.40;102085.00;;;;5072895;28;20673;-79
2021/03/24 06:20:37;;;;;;;20.40;11.60;;;;;8.40;102079.00;;;;5072833;28;20214;-79
2021/03/24 06:23:23;;;;;;;25.42;13.38;;;;;8.40;102082.00;;;;5069946;28;20940;-79
2021/03/24 06:26:00;;;;;;;27.23;14.57;;;;;8.50;102085.00;;;;5073167;28;20210;-79
2021/03/24 06:28:40;;;;;;;29.83;15.60;;;;;8.50;102078.00;;;;5078752;28;20201;-79
2021/03/24 06:31:40;;;;;;;25.60;14.30;;;;;8.50;102076.00;;;;5069172;28;20209;-79
2021/03/24 06:34:28;;;;;;;24.55;13.85;;;;;8.60;102080.00;;;;5070849;28;20210;-79
2021/03/24 06:37:30;;;;;;;29.98;14.07;;;;;8.60;102078.00;;;;5071904;28;20199;-79
2021/03/24 06:40:36;;;;;;;25.45;14.00;;;;;8.60;102083.00;;;;5030107;28;20220;-79
2021/03/24 06:43:27;;;;;;;27.17;13.75;;;;;8.70;102080.00;;;;5079448;28;20218;-78
2021/03/24 06:46:08;;;;;;;25.80;13.55;;;;;8.80;102082.00;;;;5060569;28;20198;-77
2021/03/24 06:48:50;;;;;;;25.88;13.80;;;;;8.80;102078.00;;;;5079090;28;20590;-78
2021/03/24 06:52:12;;;;;;;26.20;13.88;;;;;8.90;102078.00;;;;5079403;28;20198;-79
2021/03/24 06:55:20;;;;;;;27.25;14.18;;;;;8.90;102082.00;;;;5077091;28;21894;-78
2021/03/24 06:58:14;;;;;;;24.30;13.48;;;;;9.10;102086.00;;;;5078818;28;20190;-79
2021/03/24 07:01:07;;;;;;;27.55;14.05;;;;;9.10;102083.00;;;;5082447;28;20214;-79
2021/03/24 07:04:12;;;;;;;26.67;15.10;;;;;9.20;102079.00;;;;5079014;28;20229;-76
2021/03/24 07:06:55;;;;;;;24.48;14.10;;;;;9.30;102075.00;;;;5077281;28;20191;-76
2021/03/24 07:09:31;;;;;;;29.10;14.95;;;;;9.40;102078.00;;;;5078383;28;20584;-76
2021/03/24 07:12:12;;;;;;;30.85;16.02;;;;;9.50;102078.00;;;;5077198;28;20660;-76
2021/03/24 07:15:15;;;;;;;30.45;15.73;;;;;9.60;102078.00;;;;5076093;28;20190;-77
2021/03/24 07:18:14;;;;;;;30.00;15.30;;;;;9.70;102077.00;;;;5083126;28;20198;-77
2021/03/24 07:21:08;;;;;;;30.90;16.17;;;;;9.80;102085.00;;;;5071233;28;20655;-77
2021/03/24 07:23:48;;;;;;;30.10;15.52;;;;;9.90;102087.00;;;;5076335;28;20186;-78
2021/03/24 07:26:23;;;;;;;28.23;15.57;;;;;10.00;102088.00;;;;5082284;28;20281;-77
2021/03/24 07:29:05;;;;;;;33.78;16.85;;;;;10.10;102083.00;;;;5083034;28;20194;-77
2021/03/24 07:31:51;;;;;;;32.47;17.25;;;;;10.20;102088.00;;;;5084159;28;20442;-77
2021/03/24 07:34:39;;;;;;;31.63;17.88;;;;;10.30;102093.00;;;;5086490;28;20279;-77
2021/03/24 07:37:44;;;;;;;31.60;16.92;;;;;10.40;102094.00;;;;5081848;28;20205;-78
2021/03/24 07:40:26;;;;;;;27.95;16.40;;;;;10.50;102088.00;;;;4993268;28;20607;-77
2021/03/24 07:43:11;;;;;;;32.20;17.58;;;;;10.60;102091.00;;;;5067664;28;20198;-78
2021/03/24 07:46:02;;;;;;;30.98;16.85;;;;;10.70;102088.00;;;;5077688;28;20624;-78
2021/03/24 07:49:05;;;;;;;31.42;17.10;;;;;10.80;102081.00;;;;5075769;28;20218;-77
2021/03/24 07:52:02;;;;;;;29.42;16.05;;;;;10.90;102082.00;;;;5078473;28;20190;-77
2021/03/24 07:54:36;;;;;;;30.98;17.23;;;;;11.10;102075.00;;;;5077502;28;20248;-78
2021/03/24 07:57:11;;;;;;;30.63;17.23;;;;;11.20;102079.00;;;;5075716;28;20575;-78
2021/03/24 07:59:46;;;;;;;33.78;17.90;;;;;11.30;102076.00;;;;5074452;28;20217;-78
2021/03/24 08:02:42;;;;;;;38.78;19.58;;;;;11.30;102078.00;;;;5077812;28;20196;-76
2021/03/24 08:05:42;;;;;;;39.90;19.85;;;;;11.50;102079.00;;;;5079436;28;20190;-76
2021/03/24 08:08:13;;;;;;;35.65;19.30;;;;;11.60;102076.00;;;;5078935;28;20199;-76
2021/03/24 08:10:51;;;;;;;36.50;18.73;;;;;11.70;102086.00;;;;5070387;28;20206;-76
2021/03/24 08:13:41;;;;;;;34.05;18.80;;;;;11.80;102085.00;;;;5085646;28;20940;-76
2021/03/24 08:16:50;;;;;;;37.22;19.48;;;;;11.90;102081.00;;;;5072786;28;20197;-76
2021/03/24 08:19:33;;;;;;;36.05;18.45;;;;;12.10;102085.00;;;;5026091;28;20220;-76
2021/03/24 08:22:15;;;;;;;37.72;20.23;;;;;12.20;102077.00;;;;5024875;28;20196;-76
2021/03/24 08:24:55;;;;;;;36.88;19.75;;;;;12.30;102081.00;;;;5064992;28;20202;-77
2021/03/24 08:27:27;;;;;;;37.42;19.23;;;;;12.50;102080.00;;;;5088973;28;20256;-76
2021/03/24 08:30:01;;;;;;;36.90;19.48;;;;;12.60;102078.00;;;;5086518;28;20190;-76
2021/03/24 08:33:05;;;;;;;36.85;19.65;;;;;12.70;102074.00;;;;5084747;28;20198;-76
2021/03/24 08:35:57;;;;;;;29.75;17.55;;;;;12.80;102072.00;;;;5088079;28;20259;-77
2021/03/24 08:38:56;;;;;;;31.33;19.13;;;;;13.00;102079.00;;;;5086536;28;20723;-77
2021/03/24 08:41:50;;;;;;;32.47;18.27;;;;;13.10;102066.00;;;;5085985;28;20206;-77
2021/03/24 08:44:23;;;;;;;33.13;18.42;;;;;13.30;102070.00;;;;5081836;28;20198;-77
2021/03/24 08:46:55;;;;;;;33.65;18.98;;;;;13.40;102081.00;;;;5087996;28;20239;-77
2021/03/24 08:49:26;;;;;;;35.88;20.42;;;;;13.60;102076.00;;;;5086681;28;20237;-77
2021/03/24 08:52:00;;;;;;;34.33;19.50;;;;;13.70;102080.00;;;;5083724;28;20201;-77
2021/03/24 08:55:08;;;;;;;35.65;18.17;;;;;13.80;102080.00;;;;5088603;28;20213;-77
2021/03/24 08:57:46;;;;;;;32.45;18.92;;;;;14.00;102079.00;;;;5085313;28;20220;-77
2021/03/24 09:00:28;;;;;;;37.22;18.83;;;;;14.10;102075.00;;;;5084163;28;20220;-77
2021/03/24 09:03:10;;;;;;;36.17;18.25;;;;;14.20;102084.00;;;;5087456;28;20541;-78
2021/03/24 09:05:41;;;;;;;33.10;17.63;;;;;14.30;102082.00;;;;5086436;28;20195;-76
2021/03/24 09:08:24;;;;;;;37.22;18.55;;;;;14.40;102085.00;;;;5082924;28;20206;-76
2021/03/24 09:11:11;;;;;;;33.97;19.35;;;;;14.50;102083.00;;;;5088799;28;20226;-77
2021/03/24 09:13:43;;;;;;;35.55;19.13;;;;;14.70;102077.00;;;;5085963;28;20197;-77
2021/03/24 09:16:39;;;;;;;31.88;18.23;;;;;14.70;102072.00;;;;5080528;28;20206;-77
2021/03/24 09:19:17;;;;;;;33.08;18.70;;;;;14.90;102079.00;;;;5066276;28;20213;-77
2021/03/24 09:21:55;;;;;;;28.45;17.63;;;;;15.00;102086.00;;;;5073614;28;20736;-77
2021/03/24 09:25:01;;;;;;;32.72;18.45;;;;;15.20;102077.00;;;;5075330;28;20595;-77
2021/03/24 09:27:55;;;;;;;32.15;17.58;;;;;15.30;102071.00;;;;5060880;28;20247;-78
2021/03/24 09:30:50;;;;;;;33.03;19.30;;;;;15.40;102081.00;;;;5076886;28;22122;-78
2021/03/24 09:33:42;;;;;;;32.50;18.48;;;;;15.60;102071.00;;;;5078315;28;20210;-77
2021/03/24 09:36:55;;;;;;;30.77;17.83;;;;;15.70;102080.00;;;;5054740;28;20195;-78
2021/03/24 09:39:30;;;;;;;32.90;19.45;;;;;15.90;102079.00;;;;5039388;28;20198;-77
2021/03/24 09:42:01;;;;;;;33.13;19.95;;;;;16.00;102077.00;;;;5075997;28;20508;-77
2021/03/24 09:44:35;;;;;;;33.53;18.80;;;;;16.10;102074.00;;;;5078771;28;20609;-78
2021/03/24 09:47:03;;;;;;;31.00;19.02;;;;;16.20;102079.00;;;;5078207;28;20190;-79
2021/03/24 09:49:33;;;;;;;31.35;18.80;;;;;16.40;102077.00;;;;5077269;28;20223;-82
2021/03/24 09:52:30;;;;;;;32.55;19.13;;;;;16.40;102080.00;;;;5068318;28;20673;-81
2021/03/24 09:55:16;;;;;;;32.15;18.17;;;;;16.50;102071.00;;;;5073058;28;20975;-82
2021/03/24 09:58:07;;;;;;;31.33;18.50;;;;;16.60;102071.00;;;;5074082;28;20187;-79
2021/03/24 10:00:39;;;;;;;32.40;18.38;;;;;16.80;102075.00;;;;5075869;28;20237;-79
2021/03/24 10:03:15;;;;;;;35.88;19.58;;;;;16.90;102074.00;;;;5075565;28;20198;-80
2021/03/24 10:05:50;;;;;;;30.13;17.55;;;;;17.00;102072.00;;;;5072810;28;20330;-79
2021/03/24 10:08:22;;;;;;;29.00;17.38;;;;;17.10;102071.00;;;;5080982;28;20217;-79
2021/03/24 10:10:53;;;;;;;30.35;18.25;;;;;17.30;102069.00;;;;5072641;28;20206;-81
2021/03/24 10:13:24;;;;;;;31.75;19.17;;;;;17.40;102076.00;;;;5074450;28;20699;-81
2021/03/24 10:15:54;;;;;;;31.40;17.77;;;;;17.50;102070.00;;;;5076717;28;20301;-80
2021/03/24 10:18:28;;;;;;;32.17;19.35;;;;;17.60;102072.00;;;;5084356;28;20188;-80
2021/03/24 10:21:02;;;;;;;28.33;17.58;;;;;17.70;102074.00;;;;5084060;28;20699;-79
2021/03/24 10:23:35;;;;;;;27.85;17.00;;;;;17.80;102066.00;;;;5086636;28;20205;-79
2021/03/24 10:26:14;;;;;;;25.73;16.08;;;;;17.90;102066.00;;;;5090118;28;20197;-79
2021/03/24 10:28:44;;;;;;;30.45;18.25;;;;;18.00;102063.00;;;;5086241;28;20614;-79
2021/03/24 10:31:18;;;;;;;29.98;17.58;;;;;18.10;102062.00;;;;5088492;28;20207;-79
2021/03/24 10:33:50;;;;;;;29.00;16.60;;;;;18.20;102067.00;;;;5085508;28;20194;-79
2021/03/24 10:36:21;;;;;;;37.00;19.25;;;;;18.20;102054.00;;;;5087621;28;20194;-79
2021/03/24 10:38:54;;;;;;;30.27;18.35;;;;;18.30;102053.00;;;;5090104;28;20230;-79
2021/03/24 10:41:28;;;;;;;34.45;18.88;;;;;18.30;102060.00;;;;5090599;28;20710;-79
2021/03/24 10:44:02;;;;;;;27.58;16.25;;;;;18.40;102063.00;;;;5089643;28;20198;-80
2021/03/24 10:46:33;;;;;;;29.20;17.45;;;;;18.40;102056.00;;;;5090905;28;20202;-80
2021/03/24 10:49:02;;;;;;;29.45;16.95;;;;;18.50;102057.00;;;;5089872;28;20237;-80
2021/03/24 10:51:45;;;;;;;31.00;16.55;;;;;18.50;102049.00;;;;5088802;28;20198;-80
2021/03/24 10:54:18;;;;;;;27.83;16.17;;;;;18.60;102061.00;;;;5091358;28;20198;-79
2021/03/24 10:57:07;;;;;;;25.08;15.27;;;;;18.70;102055.00;;;;5090768;28;20213;-78
2021/03/24 10:59:38;;;;;;;22.17;13.70;;;;;18.80;102050.00;;;;5086925;28;20683;-77
2021/03/24 11:02:18;;;;;;;24.65;15.07;;;;;18.90;102054.00;;;;5094799;28;20213;-78
2021/03/24 11:04:51;;;;;;;26.90;16.48;;;;;19.00;102058.00;;;;5092517;28;20671;-78
2021/03/24 11:07:26;;;;;;;30.27;17.67;;;;;19.00;102043.00;;;;5087227;28;20206;-78
2021/03/24 11:09:57;;;;;;;26.75;15.60;;;;;19.10;102046.00;;;;5090682;28;20198;-78
2021/03/24 11:12:36;;;;;;;28.95;16.95;;;;;19.10;102048.00;;;;5095847;28;20191;-77
2021/03/24 11:15:12;;;;;;;25.13;15.85;;;;;19.20;102043.00;;;;5091044;28;20194;-77
2021/03/24 11:17:42;;;;;;;24.75;15.95;;;;;19.30;102042.00;;;;5097465;28;20201;-77
2021/03/24 11:20:12;;;;;;;27.25;15.93;;;;;19.30;102036.00;;;;5090934;28;20644;-77
2021/03/24 11:22:56;;;;;;;24.75;14.77;;;;;19.30;102037.00;;;;5093146;28;20202;-77
2021/03/24 11:25:29;;;;;;;25.70;16.17;;;;;19.40;102025.00;;;;5084475;28;20266;-78
2021/03/24 11:27:59;;;;;;;25.15;15.40;;;;;19.40;102024.00;;;;5089625;28;20206;-78
2021/03/24 11:30:30;;;;;;;21.75;14.23;;;;;19.50;102014.00;;;;5081233;28;20198;-79
2021/03/24 11:33:04;;;;;;;32.75;16.70;;;;;19.50;102022.00;;;;5076518;28;20294;-78
2021/03/24 11:35:34;;;;;;;26.73;16.33;;;;;19.60;102011.00;;;;5073771;28;20191;-78
2021/03/24 11:38:13;;;;;;;26.58;16.02;;;;;19.60;102013.00;;;;5090743;28;20308;-77
2021/03/24 11:40:44;;;;;;;23.92;14.73;;;;;19.70;102024.00;;;;5091532;28;20616;-78
2021/03/24 11:43:19;;;;;;;21.85;13.35;;;;;19.80;102015.00;;;;5090837;28;20209;-78
2021/03/24 11:45:46;;;;;;;27.25;15.60;;;;;19.90;102020.00;;;;5094789;28;20194;-77
2021/03/24 11:48:30;;;;;;;22.75;13.85;;;;;19.90;102016.00;;;;5085684;28;20247;-78
2021/03/24 11:51:17;;;;;;;24.88;14.32;;;;;20.00;102026.00;;;;5091031;28;20202;-77
2021/03/24 11:53:57;;;;;;;23.42;14.57;;;;;20.00;102021.00;;;;5090327;28;20663;-77
2021/03/24 11:56:37;;;;;;;24.48;14.38;;;;;20.10;102013.00;;;;5074838;28;20580;-78
2021/03/24 11:59:13;;;;;;;25.13;14.15;;;;;20.20;102017.00;;;;5079338;28;20199;-78
2021/03/24 12:01:54;;;;;;;23.20;14.73;;;;;20.20;102015.00;;;;5070681;28;20245;-78
2021/03/24 12:04:35;;;;;;;25.27;15.82;;;;;20.30;102014.00;;;;5084065;28;20198;-77
2021/03/24 12:07:22;;;;;;;26.58;14.15;;;;;20.30;102015.00;;;;5083365;28;20209;-78
2021/03/24 12:10:00;;;;;;;22.35;14.23;;;;;20.50;102014.00;;;;5070780;28;20684;-77
2021/03/24 12:12:26;;;;;;;22.65;15.63;;;;;20.50;102009.00;;;;5071544;28;20206;-77
2021/03/24 12:15:04;;;;;;;26.90;15.30;;;;;20.50;102008.00;;;;5075011;28;20202;-77
2021/03/24 12:17:34;;;;;;;20.92;13.82;;;;;20.60;102005.00;;;;5075710;28;20260;-80
2021/03/24 12:20:13;;;;;;;20.20;13.52;;;;;20.60;102003.00;;;;5072207;28;20218;-80
2021/03/24 12:22:49;;;;;;;17.80;12.57;;;;;20.80;102001.00;;;;5070970;28;20194;-82
2021/03/24 12:25:19;;;;;;;23.33;13.70;;;;;20.90;102008.00;;;;5088976;28;20391;-81
2021/03/24 12:27:48;;;;;;;24.13;14.77;;;;;21.00;102007.00;;;;5085334;28;20194;-81
2021/03/24 12:30:26;;;;;;;18.20;12.40;;;;;21.00;102005.00;;;;5085819;28;20676;-80
2021/03/24 12:33:06;;;;;;;18.38;11.93;;;;;21.00;101991.00;;;;5073480;28;20207;-81
2021/03/24 12:35:34;;;;;;;20.17;13.15;;;;;21.10;101994.00;;;;5077909;28;20203;-80
2021/03/24 12:38:04;;;;;;;20.52;12.15;;;;;21.20;101988.00;;;;5076611;28;20222;-80
2021/03/24 12:40:31;;;;;;;16.50;12.05;;;;;21.20;101990.00;;;;5083267;28;20735;-81